createdAt,value
2022-09-01T02:47:45.546Z,17.00
2022-09-01T02:50:16.953Z,12.50
2022-09-01T02:52:45.029Z,12.10
2022-09-01T02:55:11.933Z,12.10
2022-09-01T02:57:38.637Z,12.00
2022-09-01T03:00:20.540Z,12.10
2022-09-01T03:02:52.028Z,12.10
2022-09-01T03:05:25.281Z,12.20
2022-09-01T03:07:54.541Z,12.20
2022-09-01T03:10:21.924Z,12.20
2022-09-01T03:12:51.166Z,12.20
2022-09-01T03:15:17.758Z,12.20
2022-09-01T03:17:45.682Z,12.20
2022-09-01T03:20:12.300Z,12.30
2022-09-01T03:22:38.974Z,12.30
2022-09-01T03:25:05.902Z,12.10
2022-09-01T03:27:33.375Z,12.00
2022-09-01T03:30:00.561Z,12.00
2022-09-01T03:32:27.196Z,11.90
2022-09-01T03:34:54.563Z,11.90
2022-09-01T03:37:23.191Z,11.70
2022-09-01T03:39:52.465Z,11.80
2022-09-01T03:42:25.846Z,11.70
2022-09-01T03:44:53.291Z,11.70
2022-09-01T03:47:21.108Z,11.60
2022-09-01T03:49:50.066Z,11.60
2022-09-01T03:52:17.566Z,11.60
2022-09-01T03:54:45.277Z,11.50
2022-09-01T03:57:12.076Z,11.60
2022-09-01T03:59:44.853Z,11.60
2022-09-01T04:02:13.050Z,11.50
2022-09-01T04:04:39.777Z,11.60
2022-09-01T04:07:07.381Z,11.60
2022-09-01T04:09:35.238Z,11.60
2022-09-01T04:12:03.463Z,11.70
2022-09-01T04:14:31.251Z,11.80
2022-09-01T04:17:16.433Z,11.90
2022-09-01T04:19:43.262Z,12.00
2022-09-01T04:22:16.074Z,12.10
2022-09-01T04:24:45.585Z,12.10
2022-09-01T04:27:12.694Z,12.20
2022-09-01T04:29:39.353Z,12.30
2022-09-01T04:32:09.701Z,12.50
2022-09-01T04:34:38.147Z,12.40
2022-09-01T04:37:18.062Z,12.50
2022-09-01T04:39:56.664Z,12.50
2022-09-01T04:42:25.802Z,12.60
2022-09-01T04:44:53.767Z,12.50
2022-09-01T04:47:29.912Z,12.40
2022-09-01T04:50:04.263Z,12.60
2022-09-01T04:52:31.897Z,12.50
2022-09-01T04:54:58.636Z,12.40
2022-09-01T04:57:27.529Z,12.60
2022-09-01T04:59:56.699Z,12.60
2022-09-01T05:02:27.109Z,12.80
2022-09-01T05:04:54.152Z,12.90
2022-09-01T05:07:21.409Z,13.00
2022-09-01T05:09:48.035Z,13.20
2022-09-01T05:12:15.820Z,13.20
2022-09-01T05:14:45.076Z,13.50
2022-09-01T05:17:12.020Z,13.80
2022-09-01T05:19:43.166Z,13.70
2022-09-01T05:22:10.247Z,13.90
2022-09-01T05:24:41.930Z,14.00
2022-09-01T05:27:10.210Z,14.10
2022-09-01T05:29:37.929Z,14.20
2022-09-01T05:32:08.794Z,14.30
2022-09-01T05:34:37.449Z,14.30
2022-09-01T05:37:06.349Z,14.40
2022-09-01T05:39:33.119Z,14.40
2022-09-01T05:42:00.938Z,14.40
2022-09-01T05:44:27.598Z,14.70
2022-09-01T05:46:55.735Z,14.60
2022-09-01T05:49:22.444Z,14.60
2022-09-01T05:51:51.559Z,14.60
2022-09-01T05:54:19.808Z,14.70
2022-09-01T05:56:47.195Z,14.60
2022-09-01T05:59:23.044Z,14.70
2022-09-01T06:01:50.898Z,14.70
2022-09-01T06:04:17.703Z,14.70
2022-09-01T06:07:06.672Z,14.80
2022-09-01T06:09:38.401Z,14.90
2022-09-01T06:12:06.484Z,14.80
2022-09-01T06:14:33.141Z,14.90
2022-09-01T06:17:00.825Z,15.00
2022-09-01T06:19:27.426Z,14.90
2022-09-01T06:21:54.045Z,15.00
2022-09-01T06:24:20.709Z,14.90
2022-09-01T06:26:47.323Z,15.00
2022-09-01T06:29:16.832Z,15.20
2022-09-01T06:31:45.721Z,15.20
2022-09-01T06:34:17.601Z,15.30
2022-09-01T06:36:45.052Z,15.50
2022-09-01T06:39:19.538Z,15.60
2022-09-01T06:41:48.018Z,15.80
2022-09-01T06:44:16.062Z,16.00
2022-09-01T06:46:42.912Z,16.00
2022-09-01T06:49:11.580Z,16.10
2022-09-01T06:51:38.522Z,16.10
2022-09-01T06:54:11.239Z,16.20
2022-09-01T06:56:44.905Z,16.20
2022-09-01T06:59:34.599Z,16.10
2022-09-01T07:02:04.807Z,16.00
2022-09-01T07:04:51.228Z,16.00
2022-09-01T07:10:18.125Z,16.00
2022-09-01T07:13:08.105Z,15.90
2022-09-01T07:18:31.194Z,16.10
2022-09-01T07:21:09.391Z,16.00
2022-09-01T07:24:07.881Z,16.00
2022-09-01T07:26:31.638Z,16.10
2022-09-01T07:29:01.814Z,16.30
2022-09-01T07:39:52.010Z,17.00
2022-09-01T07:45:26.637Z,17.50
2022-09-01T07:47:54.282Z,17.70
2022-09-01T08:30:52.405Z,18.00
2022-09-01T08:35:48.218Z,23.30
2022-09-01T08:38:14.936Z,25.70
2022-09-01T08:40:41.899Z,26.30
2022-09-01T08:51:20.925Z,27.40
2022-09-01T08:54:12.505Z,30.60
2022-09-01T09:14:45.551Z,30.30
2022-09-01T09:42:54.173Z,30.90
2022-09-01T10:13:18.017Z,32.00
2022-09-01T10:15:49.891Z,31.60
2022-09-01T10:23:31.216Z,31.70
2022-09-01T10:26:05.012Z,31.40
2022-09-01T10:38:24.221Z,31.50
2022-09-01T10:41:07.126Z,29.10
2022-09-01T10:43:40.878Z,28.60
2022-09-01T10:46:25.432Z,28.50
2022-09-01T11:20:46.186Z,27.90
2022-09-01T11:23:25.008Z,29.60
2022-09-01T11:36:37.936Z,30.60
2022-09-01T11:54:14.605Z,32.70
2022-09-01T11:56:41.335Z,28.10
2022-09-01T12:09:20.281Z,27.70
2022-09-01T12:14:20.429Z,27.00
2022-09-01T12:16:56.201Z,26.80
2022-09-01T12:19:24.252Z,26.60
2022-09-01T12:22:07.364Z,27.10
2022-09-01T12:24:35.278Z,27.80
2022-09-01T12:27:01.956Z,28.50
2022-09-01T12:29:32.108Z,29.40
2022-09-01T12:31:59.242Z,30.30
2022-09-01T12:34:32.684Z,30.90
2022-09-01T12:37:22.226Z,31.30
2022-09-01T12:39:57.417Z,30.70
2022-09-01T12:42:29.953Z,30.00
2022-09-01T12:50:05.992Z,28.80
2022-09-01T12:52:36.204Z,27.10
2022-09-01T12:55:03.026Z,26.80
2022-09-01T12:57:34.544Z,26.70
2022-09-01T13:00:23.590Z,26.60
2022-09-01T13:03:05.599Z,26.80
2022-09-01T13:05:41.888Z,27.40
2022-09-01T13:08:14.674Z,27.80
2022-09-01T13:10:49.223Z,28.50
2022-09-01T13:13:16.767Z,29.70
2022-09-01T13:15:54.501Z,30.30
2022-09-01T13:18:22.683Z,31.00
2022-09-01T13:20:50.110Z,31.60
2022-09-01T13:23:17.332Z,31.70
2022-09-01T13:25:46.648Z,31.10
2022-09-01T13:28:13.951Z,30.30
2022-09-01T13:30:40.826Z,29.50
2022-09-01T13:33:23.347Z,28.70
2022-09-01T13:35:51.124Z,28.10
2022-09-01T13:38:18.128Z,28.10
2022-09-01T13:40:46.021Z,28.70
2022-09-01T13:43:15.129Z,29.60
2022-09-01T13:45:42.081Z,30.30
2022-09-01T13:48:16.815Z,30.60
2022-09-01T13:53:31.696Z,31.80
2022-09-01T14:03:21.891Z,32.30
2022-09-01T14:28:01.954Z,32.40
2022-09-01T14:33:03.749Z,30.40
2022-09-01T14:35:33.145Z,28.90
2022-09-01T16:01:56.025Z,28.50
2022-09-01T16:04:27.536Z,28.20
2022-09-01T16:06:56.357Z,28.40
2022-09-01T16:09:23.014Z,28.60
2022-09-01T16:11:49.841Z,28.50
2022-09-01T16:14:16.706Z,28.30
2022-09-01T16:17:05.745Z,28.30
2022-09-01T16:19:53.962Z,28.10
2022-09-01T16:22:36.189Z,27.90
2022-09-01T16:25:17.355Z,27.50
2022-09-01T16:30:13.553Z,27.00
2022-09-01T16:37:45.414Z,26.30
2022-09-01T16:40:29.796Z,25.50
2022-09-01T16:43:05.346Z,25.30
2022-09-01T16:48:19.739Z,25.00
2022-09-01T16:51:06.526Z,24.40
2022-09-01T16:56:42.829Z,24.10
2022-09-01T16:59:34.932Z,23.50
2022-09-01T17:02:20.210Z,23.30
2022-09-01T17:04:48.464Z,23.20
2022-09-01T17:07:36.600Z,23.10
2022-09-01T17:10:19.280Z,22.90
2022-09-01T17:12:50.434Z,22.80
2022-09-01T17:15:19.831Z,22.70
2022-09-01T17:18:23.337Z,22.60
2022-09-01T17:20:57.909Z,22.50
2022-09-01T17:23:29.811Z,22.40
2022-09-01T17:26:12.380Z,22.40
2022-09-01T17:28:44.245Z,22.30
2022-09-01T17:31:18.463Z,22.20
2022-09-01T17:34:02.889Z,22.10
2022-09-01T17:36:29.483Z,21.90
2022-09-01T17:39:05.772Z,21.90
2022-09-01T17:41:40.147Z,21.80
2022-09-01T17:44:21.861Z,21.70
2022-09-01T17:46:55.701Z,21.60
2022-09-01T17:49:48.022Z,21.50
2022-09-01T17:52:42.366Z,21.40
2022-09-01T17:55:20.870Z,21.20
2022-09-01T17:58:04.701Z,21.10
2022-09-01T18:00:39.913Z,20.90
2022-09-01T18:03:09.645Z,20.80
2022-09-01T18:05:48.496Z,20.60
2022-09-01T18:08:21.324Z,20.50
2022-09-01T18:11:00.414Z,20.50
2022-09-01T18:13:53.224Z,20.40
2022-09-01T18:16:23.755Z,20.40
2022-09-01T18:18:51.035Z,20.40
2022-09-01T18:21:24.851Z,20.30
2022-09-01T18:24:14.588Z,20.40
2022-09-01T18:26:43.557Z,20.30
2022-09-01T18:29:10.368Z,20.30
2022-09-01T18:32:11.492Z,20.20
2022-09-01T18:34:44.654Z,20.20
2022-09-01T18:37:14.203Z,20.20
2022-09-01T18:39:52.818Z,20.00
2022-09-01T18:42:23.053Z,20.00
2022-09-01T18:45:08.634Z,19.90
2022-09-01T18:47:40.180Z,19.80
2022-09-01T18:50:13.283Z,19.70
2022-09-01T18:53:04.773Z,19.60
2022-09-01T18:55:55.327Z,19.60
2022-09-01T18:58:31.347Z,19.50
2022-09-01T19:01:07.172Z,19.40
2022-09-01T19:03:48.781Z,19.30
2022-09-01T19:06:41.450Z,19.30
2022-09-01T19:09:14.581Z,19.20
2022-09-01T19:11:50.134Z,19.10
2022-09-01T19:14:28.954Z,19.00
2022-09-01T19:17:14.009Z,19.00
2022-09-01T19:19:59.811Z,18.90
2022-09-01T19:22:55.439Z,18.80
2022-09-01T19:25:36.720Z,18.60
2022-09-01T19:28:28.883Z,18.50
2022-09-01T19:31:13.094Z,18.50
2022-09-01T19:33:45.352Z,18.40
2022-09-01T19:36:16.837Z,18.30
2022-09-01T19:38:44.905Z,18.30
2022-09-01T19:41:37.313Z,18.30
2022-09-01T19:44:20.148Z,18.20
2022-09-01T19:46:49.404Z,18.20
2022-09-01T19:49:57.164Z,18.10
2022-09-01T19:52:39.248Z,18.00
2022-09-01T19:55:17.993Z,18.10
2022-09-01T19:57:56.353Z,18.00
2022-09-01T20:00:35.759Z,17.90
2022-09-01T20:03:08.020Z,17.80
2022-09-01T20:05:45.917Z,17.80
2022-09-01T20:08:20.553Z,17.80
2022-09-01T20:10:57.754Z,17.70
2022-09-01T20:13:53.350Z,17.70
2022-09-01T20:16:45.529Z,17.60
2022-09-01T20:19:14.568Z,17.60
2022-09-01T20:21:43.714Z,17.50
2022-09-01T20:24:31.794Z,17.40
2022-09-01T20:27:22.053Z,17.40
2022-09-01T20:29:49.367Z,17.30
2022-09-01T20:32:22.133Z,17.30
2022-09-01T20:34:52.797Z,17.20
2022-09-01T20:37:24.125Z,17.20
2022-09-01T20:40:02.167Z,17.10
2022-09-01T20:42:33.929Z,17.00
2022-09-01T20:45:22.122Z,16.90
2022-09-01T20:47:58.720Z,16.70
2022-09-01T20:50:56.069Z,16.50
2022-09-01T20:53:40.042Z,16.40
2022-09-01T20:56:13.779Z,16.20
2022-09-01T20:58:45.316Z,16.10
2022-09-01T21:01:22.610Z,16.10
2022-09-01T21:04:10.745Z,16.10
2022-09-01T21:07:14.959Z,16.10
2022-09-01T21:09:53.503Z,16.10
2022-09-01T21:12:58.767Z,16.10
2022-09-01T21:15:32.293Z,16.10
2022-09-01T21:18:12.104Z,16.00
2022-09-01T21:21:00.528Z,15.90
2022-09-01T21:23:30.989Z,15.80
2022-09-01T21:25:57.807Z,15.70
2022-09-01T21:28:26.406Z,15.60
2022-09-01T21:30:57.545Z,15.50
2022-09-01T21:33:25.374Z,15.60
2022-09-01T21:35:52.097Z,15.70
2022-09-01T21:38:18.773Z,15.70
2022-09-01T21:40:45.578Z,15.80
2022-09-01T21:43:23.120Z,16.00
2022-09-01T21:45:49.868Z,15.60
2022-09-01T21:48:16.503Z,15.60
2022-09-01T21:50:43.246Z,15.40
2022-09-01T21:53:10.075Z,15.20
2022-09-01T21:55:37.564Z,15.10
2022-09-01T21:58:04.268Z,15.00
2022-09-01T22:00:33.514Z,14.90
2022-09-01T22:03:01.676Z,14.60
2022-09-01T22:05:28.980Z,14.70
2022-09-01T22:07:56.069Z,14.50
2022-09-01T22:10:25.909Z,14.40
2022-09-01T22:12:52.644Z,14.30
2022-09-01T22:15:21.073Z,14.50
2022-09-01T22:17:48.022Z,14.50
2022-09-01T22:20:18.362Z,14.50
2022-09-01T22:22:45.772Z,14.40
2022-09-01T22:25:14.701Z,14.40
2022-09-01T22:27:41.389Z,14.40
2022-09-01T22:30:08.396Z,14.40
2022-09-01T22:32:37.734Z,14.30
2022-09-01T22:35:09.420Z,14.30
2022-09-01T22:37:36.313Z,14.20
2022-09-01T22:40:04.215Z,14.10
2022-09-01T22:42:30.973Z,13.90
2022-09-01T22:44:57.616Z,13.80
2022-09-01T22:47:24.226Z,13.80
2022-09-01T22:49:51.002Z,13.80
2022-09-01T22:52:17.757Z,13.70
2022-09-01T22:54:44.639Z,13.70
2022-09-01T22:57:11.949Z,13.80
2022-09-01T22:59:41.768Z,13.80
2022-09-01T23:02:10.153Z,13.90
2022-09-01T23:04:37.739Z,13.90
2022-09-01T23:07:04.699Z,14.00
2022-09-01T23:09:31.322Z,14.10
2022-09-01T23:11:57.940Z,14.00
2022-09-01T23:14:24.741Z,14.00
2022-09-01T23:16:52.584Z,13.90
2022-09-01T23:19:20.524Z,13.90
2022-09-01T23:21:47.820Z,13.80
2022-09-01T23:24:14.883Z,13.90
2022-09-01T23:26:41.729Z,13.80
2022-09-01T23:29:08.506Z,14.00
2022-09-01T23:31:36.930Z,13.80
2022-09-01T23:34:05.902Z,13.80
2022-09-01T23:36:32.829Z,13.80
2022-09-01T23:39:00.540Z,13.80
2022-09-01T23:41:30.871Z,13.80
2022-09-01T23:43:58.786Z,13.90
2022-09-01T23:46:30.862Z,13.70
2022-09-01T23:48:57.649Z,13.70
2022-09-01T23:51:24.557Z,13.70
2022-09-01T23:53:51.704Z,13.70
2022-09-01T23:56:21.188Z,13.70
2022-09-01T23:58:48.803Z,13.70
